sensor_id;sensor_type;location;lat;lon;timestamp;pressure;altitude;pressure_sealevel;temperature;humidity
30343;BME280;17145;49.902;8.680;'2023-05-25 01:58:54';100700;;;11;43
30343;BME280;17145;49.902;8.680;'2023-05-25 02:01:22';100700;;;11;43
30343;BME280;17145;49.902;8.680;'2023-05-25 02:03:49';100700;;;11;43
30343;BME280;17145;49.902;8.680;'2023-05-25 02:06:16';100700;;;11;44
30343;BME280;17145;49.902;8.680;'2023-05-25 02:08:44';100700;;;11;44
30343;BME280;17145;49.902;8.680;'2023-05-25 02:11:11';100690;;;11;44
30343;BME280;17145;49.902;8.680;'2023-05-25 02:13:39';100690;;;11;44
30343;BME280;17145;49.902;8.680;'2023-05-25 02:16:07';100690;;;11;44
30343;BME280;17145;49.902;8.680;'2023-05-25 02:18:34';100690;;;11;44
30343;BME280;17145;49.902;8.680;'2023-05-25 02:21:01';100690;;;11;44
30343;BME280;17145;49.902;8.680;'2023-05-25 02:23:29';100690;;;11;44
30343;BME280;17145;49.902;8.680;'2023-05-25 02:25:56';100690;;;11;44
30343;BME280;17145;49.902;8.680;'2023-05-25 02:28:24';100690;;;11;44
30343;BME280;17145;49.902;8.680;'2023-05-25 02:30:51';100690;;;11;44
30343;BME280;17145;49.902;8.680;'2023-05-25 02:33:19';100690;;;11;45
30343;BME280;17145;49.902;8.680;'2023-05-25 02:35:46';100680;;;11;44
30343;BME280;17145;49.902;8.680;'2023-05-25 02:38:16';100680;;;11;45
30343;BME280;17145;49.902;8.680;'2023-05-25 02:40:44';100690;;;11;45
30343;BME280;17145;49.902;8.680;'2023-05-25 02:43:12';100690;;;11;45
30343;BME280;17145;49.902;8.680;'2023-05-25 02:45:40';100690;;;11;45
30343;BME280;17145;49.902;8.680;'2023-05-25 02:48:08';100690;;;11;45
30343;BME280;17145;49.902;8.680;'2023-05-25 02:50:38';100690;;;11;45
30343;BME280;17145;49.902;8.680;'2023-05-25 02:53:06';100690;;;11;45
30343;BME280;17145;49.902;8.680;'2023-05-25 02:55:37';100690;;;11;45
30343;BME280;17145;49.902;8.680;'2023-05-25 02:58:07';100700;;;11;46
30343;BME280;17145;49.902;8.680;'2023-05-25 03:00:36';100690;;;11;46
30343;BME280;17145;49.902;8.680;'2023-05-25 03:03:10';100690;;;10;46
30343;BME280;17145;49.902;8.680;'2023-05-25 03:05:41';100700;;;11;46
30343;BME280;17145;49.902;8.680;'2023-05-25 03:08:12';100700;;;11;46
30343;BME280;17145;49.902;8.680;'2023-05-25 03:10:41';100700;;;11;46
30343;BME280;17145;49.902;8.680;'2023-05-25 03:13:09';100700;;;11;46
30343;BME280;17145;49.902;8.680;'2023-05-25 03:15:37';100700;;;10;46
30343;BME280;17145;49.902;8.680;'2023-05-25 03:18:04';100700;;;11;46
30343;BME280;17145;49.902;8.680;'2023-05-25 03:20:32';100710;;;11;46
30343;BME280;17145;49.902;8.680;'2023-05-25 03:23:07';100710;;;11;46
30343;BME280;17145;49.902;8.680;'2023-05-25 03:25:39';100700;;;10;47
30343;BME280;17145;49.902;8.680;'2023-05-25 03:28:10';100700;;;11;46
30343;BME280;17145;49.902;8.680;'2023-05-25 03:30:41';100700;;;11;46
30343;BME280;17145;49.902;8.680;'2023-05-25 03:33:09';100700;;;10;47
30343;BME280;17145;49.902;8.680;'2023-05-25 03:35:39';100710;;;11;47
30343;BME280;17145;49.902;8.680;'2023-05-25 03:38:07';100710;;;11;47
30343;BME280;17145;49.902;8.680;'2023-05-25 03:40:34';100710;;;11;47
30343;BME280;17145;49.902;8.680;'2023-05-25 03:43:01';100710;;;10;47
30343;BME280;17145;49.902;8.680;'2023-05-25 03:45:30';100720;;;10;47
30343;BME280;17145;49.902;8.680;'2023-05-25 03:48:04';100720;;;10;47
30343;BME280;17145;49.902;8.680;'2023-05-25 03:50:41';100720;;;10;47
30343;BME280;17145;49.902;8.680;'2023-05-25 03:53:10';100720;;;10;47
30343;BME280;17145;49.902;8.680;'2023-05-25 03:55:45';100720;;;10;48
30343;BME280;17145;49.902;8.680;'2023-05-25 03:58:15';100720;;;10;47
30343;BME280;17145;49.902;8.680;'2023-05-25 04:00:45';100720;;;10;47
30343;BME280;17145;49.902;8.680;'2023-05-25 04:03:13';100720;;;10;48
30343;BME280;17145;49.902;8.680;'2023-05-25 04:05:41';100720;;;10;48
30343;BME280;17145;49.902;8.680;'2023-05-25 04:08:08';100720;;;10;48
30343;BME280;17145;49.902;8.680;'2023-05-25 04:10:35';100720;;;10;48
30343;BME280;17145;49.902;8.680;'2023-05-25 04:13:03';100720;;;10;48
30343;BME280;17145;49.902;8.680;'2023-05-25 04:15:32';100720;;;10;48
30343;BME280;17145;49.902;8.680;'2023-05-25 04:17:59';100720;;;10;48
30343;BME280;17145;49.902;8.680;'2023-05-25 04:20:26';100720;;;10;48
30343;BME280;17145;49.902;8.680;'2023-05-25 04:22:54';100710;;;10;48
30343;BME280;17145;49.902;8.680;'2023-05-25 04:25:21';100710;;;10;48
30343;BME280;17145;49.902;8.680;'2023-05-25 04:27:49';100700;;;10;48
30343;BME280;17145;49.902;8.680;'2023-05-25 04:30:16';100710;;;10;48
30343;BME280;17145;49.902;8.680;'2023-05-25 04:32:44';100710;;;10;48
30343;BME280;17145;49.902;8.680;'2023-05-25 04:35:11';100710;;;10;48
30343;BME280;17145;49.902;8.680;'2023-05-25 04:37:38';100710;;;10;48
30343;BME280;17145;49.902;8.680;'2023-05-25 04:40:07';100710;;;10;48
30343;BME280;17145;49.902;8.680;'2023-05-25 04:42:34';100710;;;10;48
30343;BME280;17145;49.902;8.680;'2023-05-25 04:45:02';100710;;;10;48
30343;BME280;17145;49.902;8.680;'2023-05-25 04:47:29';100700;;;10;48
30343;BME280;17145;49.902;8.680;'2023-05-25 04:49:56';100700;;;10;48
30343;BME280;17145;49.902;8.680;'2023-05-25 04:52:24';100700;;;10;48
30343;BME280;17145;49.902;8.680;'2023-05-25 04:54:51';100710;;;10;49
30343;BME280;17145;49.902;8.680;'2023-05-25 04:57:18';100710;;;10;49
30343;BME280;17145;49.902;8.680;'2023-05-25 04:59:46';100710;;;10;49
30343;BME280;17145;49.902;8.680;'2023-05-25 05:02:13';100710;;;10;49
30343;BME280;17145;49.902;8.680;'2023-05-25 05:04:40';100710;;;10;49
30343;BME280;17145;49.902;8.680;'2023-05-25 05:07:08';100710;;;10;49
30343;BME280;17145;49.902;8.680;'2023-05-25 05:09:35';100710;;;10;49
30343;BME280;17145;49.902;8.680;'2023-05-25 05:12:03';100710;;;10;49
30343;BME280;17145;49.902;8.680;'2023-05-25 05:14:30';100710;;;10;49
30343;BME280;17145;49.902;8.680;'2023-05-25 05:16:57';100710;;;10;49
30343;BME280;17145;49.902;8.680;'2023-05-25 05:19:25';100710;;;10;49
30343;BME280;17145;49.902;8.680;'2023-05-25 05:21:52';100720;;;10;49
30343;BME280;17145;49.902;8.680;'2023-05-25 05:24:19';100720;;;10;48
30343;BME280;17145;49.902;8.680;'2023-05-25 05:26:47';100730;;;10;49
30343;BME280;17145;49.902;8.680;'2023-05-25 05:29:14';100730;;;10;49
30343;BME280;17145;49.902;8.680;'2023-05-25 05:31:42';100740;;;10;49
30343;BME280;17145;49.902;8.680;'2023-05-25 05:34:09';100740;;;10;48
30343;BME280;17145;49.902;8.680;'2023-05-25 05:36:37';100740;;;10;49
30343;BME280;17145;49.902;8.680;'2023-05-25 05:39:04';100740;;;10;49
30343;BME280;17145;49.902;8.680;'2023-05-25 05:41:32';100740;;;10;49
30343;BME280;17145;49.902;8.680;'2023-05-25 05:43:59';100730;;;10;49
30343;BME280;17145;49.902;8.680;'2023-05-25 05:46:27';100730;;;10;49
30343;BME280;17145;49.902;8.680;'2023-05-25 05:48:54';100730;;;10;49
30343;BME280;17145;49.902;8.680;'2023-05-25 05:51:24';100730;;;10;49
30343;BME280;17145;49.902;8.680;'2023-05-25 05:53:52';100730;;;10;49
30343;BME280;17145;49.902;8.680;'2023-05-25 05:56:19';100740;;;10;50
30343;BME280;17145;49.902;8.680;'2023-05-25 05:58:46';100740;;;10;50
30343;BME280;17145;49.902;8.680;'2023-05-25 06:01:14';100730;;;10;50
30343;BME280;17145;49.902;8.680;'2023-05-25 06:03:41';100740;;;9;50
30343;BME280;17145;49.902;8.680;'2023-05-25 06:06:09';100740;;;10;50
30343;BME280;17145;49.902;8.680;'2023-05-25 06:08:36';100750;;;10;50
30343;BME280;17145;49.902;8.680;'2023-05-25 06:11:03';100750;;;10;50
30343;BME280;17145;49.902;8.680;'2023-05-25 06:13:31';100760;;;10;50
30343;BME280;17145;49.902;8.680;'2023-05-25 06:15:58';100750;;;10;50
30343;BME280;17145;49.902;8.680;'2023-05-25 06:18:25';100750;;;10;50
30343;BME280;17145;49.902;8.680;'2023-05-25 06:20:53';100760;;;10;50
30343;BME280;17145;49.902;8.680;'2023-05-25 06:23:21';100760;;;10;50
30343;BME280;17145;49.902;8.680;'2023-05-25 06:25:48';100760;;;10;50
30343;BME280;17145;49.902;8.680;'2023-05-25 06:28:16';100760;;;10;50
30343;BME280;17145;49.902;8.680;'2023-05-25 06:30:43';100760;;;10;50
30343;BME280;17145;49.902;8.680;'2023-05-25 06:33:11';100770;;;10;49
30343;BME280;17145;49.902;8.680;'2023-05-25 06:35:38';100770;;;10;49
30343;BME280;17145;49.902;8.680;'2023-05-25 06:38:05';100770;;;10;49
30343;BME280;17145;49.902;8.680;'2023-05-25 06:40:33';100770;;;10;49
30343;BME280;17145;49.902;8.680;'2023-05-25 06:43:00';100770;;;10;49
30343;BME280;17145;49.902;8.680;'2023-05-25 06:45:28';100770;;;10;49
30343;BME280;17145;49.902;8.680;'2023-05-25 06:47:55';100780;;;10;49
30343;BME280;17145;49.902;8.680;'2023-05-25 06:50:23';100780;;;10;49
30343;BME280;17145;49.902;8.680;'2023-05-25 06:52:50';100780;;;10;49
30343;BME280;17145;49.902;8.680;'2023-05-25 06:55:17';100780;;;10;49
30343;BME280;17145;49.902;8.680;'2023-05-25 06:57:45';100780;;;10;49
30343;BME280;17145;49.902;8.680;'2023-05-25 07:00:14';100790;;;10;50
30343;BME280;17145;49.902;8.680;'2023-05-25 07:02:41';100790;;;10;49
30343;BME280;17145;49.902;8.680;'2023-05-25 07:05:08';100800;;;10;49
30343;BME280;17145;49.902;8.680;'2023-05-25 07:07:36';100800;;;10;49
30343;BME280;17145;49.902;8.680;'2023-05-25 07:10:03';100800;;;11;49
30343;BME280;17145;49.902;8.680;'2023-05-25 07:12:31';100810;;;11;49
30343;BME280;17145;49.902;8.680;'2023-05-25 07:14:58';100810;;;10;49
30343;BME280;17145;49.902;8.680;'2023-05-25 07:17:26';100810;;;10;49
30343;BME280;17145;49.902;8.680;'2023-05-25 07:19:53';100810;;;11;49
30343;BME280;17145;49.902;8.680;'2023-05-25 07:22:20';100810;;;10;50
30343;BME280;17145;49.902;8.680;'2023-05-25 07:24:48';100820;;;11;49
30343;BME280;17145;49.902;8.680;'2023-05-25 07:27:15';100820;;;11;50
30343;BME280;17145;49.902;8.680;'2023-05-25 07:29:42';100820;;;10;50
30343;BME280;17145;49.902;8.680;'2023-05-25 07:32:10';100820;;;11;49
30343;BME280;17145;49.902;8.680;'2023-05-25 07:34:37';100820;;;10;49
30343;BME280;17145;49.902;8.680;'2023-05-25 07:37:04';100820;;;11;49
30343;BME280;17145;49.902;8.680;'2023-05-25 07:39:32';100820;;;10;49
30343;BME280;17145;49.902;8.680;'2023-05-25 07:41:59';100820;;;11;49
30343;BME280;17145;49.902;8.680;'2023-05-25 07:44:26';100820;;;11;49
30343;BME280;17145;49.902;8.680;'2023-05-25 07:46:54';100820;;;11;49
30343;BME280;17145;49.902;8.680;'2023-05-25 07:49:22';100820;;;11;49
30343;BME280;17145;49.902;8.680;'2023-05-25 07:51:49';100820;;;11;49
30343;BME280;17145;49.902;8.680;'2023-05-25 07:54:16';100820;;;11;49
30343;BME280;17145;49.902;8.680;'2023-05-25 07:56:44';100830;;;11;49
30343;BME280;17145;49.902;8.680;'2023-05-25 07:59:11';100830;;;11;49
30343;BME280;17145;49.902;8.680;'2023-05-25 08:01:39';100830;;;11;48
30343;BME280;17145;49.902;8.680;'2023-05-25 08:04:06';100830;;;11;48
30343;BME280;17145;49.902;8.680;'2023-05-25 08:06:34';100830;;;11;48
30343;BME280;17145;49.902;8.680;'2023-05-25 08:09:01';100830;;;11;48
30343;BME280;17145;49.902;8.680;'2023-05-25 08:11:29';100840;;;11;48
30343;BME280;17145;49.902;8.680;'2023-05-25 08:13:56';100840;;;11;47
30343;BME280;17145;49.902;8.680;'2023-05-25 08:16:24';100840;;;11;48
30343;BME280;17145;49.902;8.680;'2023-05-25 08:18:51';100840;;;12;48
30343;BME280;17145;49.902;8.680;'2023-05-25 08:21:18';100840;;;12;47
30343;BME280;17145;49.902;8.680;'2023-05-25 08:23:46';100840;;;12;47
30343;BME280;17145;49.902;8.680;'2023-05-25 08:26:13';100830;;;12;47
30343;BME280;17145;49.902;8.680;'2023-05-25 08:28:41';100830;;;12;47
30343;BME280;17145;49.902;8.680;'2023-05-25 08:31:08';100830;;;12;47
30343;BME280;17145;49.902;8.680;'2023-05-25 08:33:35';100830;;;12;47
30343;BME280;17145;49.902;8.680;'2023-05-25 08:36:03';100830;;;12;46
30343;BME280;17145;49.902;8.680;'2023-05-25 08:38:31';100840;;;12;46
30343;BME280;17145;49.902;8.680;'2023-05-25 08:40:58';100840;;;13;46
30343;BME280;17145;49.902;8.680;'2023-05-25 08:43:25';100840;;;12;46
30343;BME280;17145;49.902;8.680;'2023-05-25 08:45:53';100830;;;13;46
30343;BME280;17145;49.902;8.680;'2023-05-25 08:48:20';100830;;;12;45
30343;BME280;17145;49.902;8.680;'2023-05-25 08:50:48';100840;;;13;45
30343;BME280;17145;49.902;8.680;'2023-05-25 08:53:15';100840;;;13;44
30343;BME280;17145;49.902;8.680;'2023-05-25 08:55:43';100840;;;13;44
30343;BME280;17145;49.902;8.680;'2023-05-25 08:58:10';100840;;;13;44
30343;BME280;17145;49.902;8.680;'2023-05-25 09:00:37';100840;;;12;44
30343;BME280;17145;49.902;8.680;'2023-05-25 09:03:05';100840;;;13;45
30343;BME280;17145;49.902;8.680;'2023-05-25 09:05:32';100840;;;13;45
30343;BME280;17145;49.902;8.680;'2023-05-25 09:08:00';100840;;;13;44
30343;BME280;17145;49.902;8.680;'2023-05-25 09:10:27';100830;;;13;44
30343;BME280;17145;49.902;8.680;'2023-05-25 09:12:54';100830;;;13;44
30343;BME280;17145;49.902;8.680;'2023-05-25 09:15:22';100830;;;13;43
30343;BME280;17145;49.902;8.680;'2023-05-25 09:17:49';100830;;;13;44
30343;BME280;17145;49.902;8.680;'2023-05-25 09:20:17';100830;;;13;43
30343;BME280;17145;49.902;8.680;'2023-05-25 09:22:46';100830;;;13;44
30343;BME280;17145;49.902;8.680;'2023-05-25 09:25:13';100830;;;13;43
30343;BME280;17145;49.902;8.680;'2023-05-25 09:27:41';100840;;;14;43
30343;BME280;17145;49.902;8.680;'2023-05-25 09:30:09';100830;;;13;42
30343;BME280;17145;49.902;8.680;'2023-05-25 09:32:37';100830;;;14;42
30343;BME280;17145;49.902;8.680;'2023-05-25 09:35:05';100840;;;14;42
30343;BME280;17145;49.902;8.680;'2023-05-25 09:37:32';100840;;;14;43
30343;BME280;17145;49.902;8.680;'2023-05-25 09:39:59';100840;;;13;43
30343;BME280;17145;49.902;8.680;'2023-05-25 09:42:27';100840;;;14;42
30343;BME280;17145;49.902;8.680;'2023-05-25 09:44:54';100840;;;14;43
30343;BME280;17145;49.902;8.680;'2023-05-25 09:47:22';100840;;;13;42
30343;BME280;17145;49.902;8.680;'2023-05-25 09:49:49';100840;;;14;42
30343;BME280;17145;49.902;8.680;'2023-05-25 09:52:16';100840;;;14;42
30343;BME280;17145;49.902;8.680;'2023-05-25 09:54:44';100840;;;14;43
30343;BME280;17145;49.902;8.680;'2023-05-25 09:57:11';100840;;;14;42
30343;BME280;17145;49.902;8.680;'2023-05-25 09:59:39';100840;;;14;42
30343;BME280;17145;49.902;8.680;'2023-05-25 10:02:06';100840;;;14;42
30343;BME280;17145;49.902;8.680;'2023-05-25 10:04:34';100850;;;14;42
30343;BME280;17145;49.902;8.680;'2023-05-25 10:07:01';100850;;;14;42
30343;BME280;17145;49.902;8.680;'2023-05-25 10:09:28';100840;;;15;42
30343;BME280;17145;49.902;8.680;'2023-05-25 10:11:56';100840;;;14;41
30343;BME280;17145;49.902;8.680;'2023-05-25 10:14:23';100840;;;15;41
30343;BME280;17145;49.902;8.680;'2023-05-25 10:16:51';100840;;;15;40
30343;BME280;17145;49.902;8.680;'2023-05-25 10:19:18';100840;;;15;41
30343;BME280;17145;49.902;8.680;'2023-05-25 10:21:46';100840;;;15;41
30343;BME280;17145;49.902;8.680;'2023-05-25 10:24:13';100830;;;15;40
30343;BME280;17145;49.902;8.680;'2023-05-25 10:26:40';100830;;;15;40
30343;BME280;17145;49.902;8.680;'2023-05-25 10:29:08';100830;;;15;39
30343;BME280;17145;49.902;8.680;'2023-05-25 10:31:35';100830;;;15;40
30343;BME280;17145;49.902;8.680;'2023-05-25 10:34:03';100830;;;16;39
30343;BME280;17145;49.902;8.680;'2023-05-25 10:36:30';100820;;;15;39
30343;BME280;17145;49.902;8.680;'2023-05-25 10:38:57';100830;;;15;38
30343;BME280;17145;49.902;8.680;'2023-05-25 10:41:25';100830;;;15;39
30343;BME280;17145;49.902;8.680;'2023-05-25 10:43:52';100830;;;16;40
30343;BME280;17145;49.902;8.680;'2023-05-25 10:46:28';100840;;;16;39
30343;BME280;17145;49.902;8.680;'2023-05-25 10:48:58';100830;;;16;38
30343;BME280;17145;49.902;8.680;'2023-05-25 10:51:28';100830;;;16;38
30343;BME280;17145;49.902;8.680;'2023-05-25 10:54:02';100830;;;16;38
30343;BME280;17145;49.902;8.680;'2023-05-25 10:56:35';100840;;;16;38
30343;BME280;17145;49.902;8.680;'2023-05-25 10:59:14';100840;;;16;38
30343;BME280;17145;49.902;8.680;'2023-05-25 11:01:50';100830;;;16;36
30343;BME280;17145;49.902;8.680;'2023-05-25 11:04:19';100830;;;16;37
30343;BME280;17145;49.902;8.680;'2023-05-25 11:06:47';100830;;;16;37
30343;BME280;17145;49.902;8.680;'2023-05-25 11:09:14';100830;;;17;37
30343;BME280;17145;49.902;8.680;'2023-05-25 11:11:42';100840;;;16;35
30343;BME280;17145;49.902;8.680;'2023-05-25 11:14:10';100830;;;17;35
30343;BME280;17145;49.902;8.680;'2023-05-25 11:16:38';100840;;;16;35
30343;BME280;17145;49.902;8.680;'2023-05-25 11:19:06';100840;;;16;35
30343;BME280;17145;49.902;8.680;'2023-05-25 11:21:34';100840;;;16;35
30343;BME280;17145;49.902;8.680;'2023-05-25 11:24:01';100840;;;16;35
30343;BME280;17145;49.902;8.680;'2023-05-25 11:26:29';100830;;;17;37
30343;BME280;17145;49.902;8.680;'2023-05-25 11:28:56';100830;;;17;36
30343;BME280;17145;49.902;8.680;'2023-05-25 11:31:24';100820;;;17;36
30343;BME280;17145;49.902;8.680;'2023-05-25 11:33:51';100820;;;17;35
30343;BME280;17145;49.902;8.680;'2023-05-25 11:36:18';100820;;;17;35
30343;BME280;17145;49.902;8.680;'2023-05-25 11:38:46';100820;;;17;34
30343;BME280;17145;49.902;8.680;'2023-05-25 11:41:14';100830;;;17;34
30343;BME280;17145;49.902;8.680;'2023-05-25 11:43:42';100820;;;17;34
30343;BME280;17145;49.902;8.680;'2023-05-25 11:46:09';100820;;;17;34
30343;BME280;17145;49.902;8.680;'2023-05-25 11:48:37';100820;;;17;35
30343;BME280;17145;49.902;8.680;'2023-05-25 11:51:06';100830;;;18;35
30343;BME280;17145;49.902;8.680;'2023-05-25 11:53:34';100830;;;18;34
30343;BME280;17145;49.902;8.680;'2023-05-25 11:56:02';100830;;;17;34
30343;BME280;17145;49.902;8.680;'2023-05-25 11:58:29';100830;;;17;34
30343;BME280;17145;49.902;8.680;'2023-05-25 12:00:57';100830;;;18;34
30343;BME280;17145;49.902;8.680;'2023-05-25 12:03:24';100830;;;18;34
30343;BME280;17145;49.902;8.680;'2023-05-25 12:05:53';100830;;;18;33
30343;BME280;17145;49.902;8.680;'2023-05-25 12:08:21';100830;;;18;33
30343;BME280;17145;49.902;8.680;'2023-05-25 12:10:49';100830;;;18;33
30343;BME280;17145;49.902;8.680;'2023-05-25 12:13:20';100830;;;18;32
30343;BME280;17145;49.902;8.680;'2023-05-25 12:15:52';100830;;;18;31
30343;BME280;17145;49.902;8.680;'2023-05-25 12:18:25';100840;;;19;32
30343;BME280;17145;49.902;8.680;'2023-05-25 12:20:59';100830;;;19;33
30343;BME280;17145;49.902;8.680;'2023-05-25 12:23:31';100830;;;19;32
30343;BME280;17145;49.902;8.680;'2023-05-25 12:26:02';100830;;;19;33
30343;BME280;17145;49.902;8.680;'2023-05-25 12:28:34';100830;;;19;31
30343;BME280;17145;49.902;8.680;'2023-05-25 12:31:02';100830;;;19;33
30343;BME280;17145;49.902;8.680;'2023-05-25 12:33:31';100830;;;20;33
30343;BME280;17145;49.902;8.680;'2023-05-25 12:36:01';100830;;;19;33
30343;BME280;17145;49.902;8.680;'2023-05-25 12:38:30';100830;;;19;33
30343;BME280;17145;49.902;8.680;'2023-05-25 12:40:58';100830;;;19;31
30343;BME280;17145;49.902;8.680;'2023-05-25 12:43:27';100830;;;19;31
30343;BME280;17145;49.902;8.680;'2023-05-25 12:45:55';100830;;;19;31
30343;BME280;17145;49.902;8.680;'2023-05-25 12:48:23';100830;;;20;32
30343;BME280;17145;49.902;8.680;'2023-05-25 12:50:50';100830;;;20;32
30343;BME280;17145;49.902;8.680;'2023-05-25 12:53:19';100820;;;20;33
30343;BME280;17145;49.902;8.680;'2023-05-25 12:55:53';100820;;;20;33
30343;BME280;17145;49.902;8.680;'2023-05-25 12:58:22';100820;;;20;33
30343;BME280;17145;49.902;8.680;'2023-05-25 13:03:46';100810;;;20;32
30343;BME280;17145;49.902;8.680;'2023-05-25 13:06:14';100810;;;20;32
30343;BME280;17145;49.902;8.680;'2023-05-25 13:08:48';100810;;;21;31
30343;BME280;17145;49.902;8.680;'2023-05-25 13:11:16';100800;;;21;31
30343;BME280;17145;49.902;8.680;'2023-05-25 13:13:44';100800;;;21;30
30343;BME280;17145;49.902;8.680;'2023-05-25 13:16:18';100800;;;21;30
30343;BME280;17145;49.902;8.680;'2023-05-25 13:18:52';100800;;;21;30
30343;BME280;17145;49.902;8.680;'2023-05-25 13:21:27';100790;;;21;31
30343;BME280;17145;49.902;8.680;'2023-05-25 13:23:56';100790;;;21;30
30343;BME280;17145;49.902;8.680;'2023-05-25 13:26:26';100790;;;21;29
30343;BME280;17145;49.902;8.680;'2023-05-25 13:28:54';100790;;;21;29
30343;BME280;17145;49.902;8.680;'2023-05-25 13:31:27';100780;;;21;29
30343;BME280;17145;49.902;8.680;'2023-05-25 13:33:56';100780;;;21;28
30343;BME280;17145;49.902;8.680;'2023-05-25 13:36:24';100780;;;22;28
30343;BME280;17145;49.902;8.680;'2023-05-25 13:38:52';100780;;;21;28
30343;BME280;17145;49.902;8.680;'2023-05-25 13:41:20';100780;;;22;29
30343;BME280;17145;49.902;8.680;'2023-05-25 13:43:48';100780;;;22;27
30343;BME280;17145;49.902;8.680;'2023-05-25 13:46:17';100780;;;22;26
30343;BME280;17145;49.902;8.680;'2023-05-25 13:48:48';100770;;;22;27
30343;BME280;17145;49.902;8.680;'2023-05-25 13:51:16';100770;;;22;26
30343;BME280;17145;49.902;8.680;'2023-05-25 13:53:44';100770;;;23;26
30343;BME280;17145;49.902;8.680;'2023-05-25 13:56:14';100770;;;23;24
30343;BME280;17145;49.902;8.680;'2023-05-25 13:58:42';100760;;;23;24
30343;BME280;17145;49.902;8.680;'2023-05-25 14:01:13';100760;;;23;24
30343;BME280;17145;49.902;8.680;'2023-05-25 14:03:42';100760;;;23;24
30343;BME280;17145;49.902;8.680;'2023-05-25 14:06:23';100760;;;23;24
30343;BME280;17145;49.902;8.680;'2023-05-25 14:08:50';100760;;;23;23
30343;BME280;17145;49.902;8.680;'2023-05-25 14:11:18';100760;;;23;23
30343;BME280;17145;49.902;8.680;'2023-05-25 14:13:46';100760;;;24;23
30343;BME280;17145;49.902;8.680;'2023-05-25 14:16:13';100750;;;23;23
30343;BME280;17145;49.902;8.680;'2023-05-25 14:18:41';100740;;;23;23
30343;BME280;17145;49.902;8.680;'2023-05-25 14:21:08';100750;;;23;24
30343;BME280;17145;49.902;8.680;'2023-05-25 14:23:36';100740;;;23;24
30343;BME280;17145;49.902;8.680;'2023-05-25 14:26:08';100740;;;23;24
30343;BME280;17145;49.902;8.680;'2023-05-25 14:28:36';100740;;;24;23
30343;BME280;17145;49.902;8.680;'2023-05-25 14:31:19';100730;;;24;23
30343;BME280;17145;49.902;8.680;'2023-05-25 14:36:28';100730;;;23;24
30343;BME280;17145;49.902;8.680;'2023-05-25 14:38:59';100730;;;24;24
30343;BME280;17145;49.902;8.680;'2023-05-25 14:41:27';100730;;;24;24
30343;BME280;17145;49.902;8.680;'2023-05-25 14:43:55';100730;;;24;24
30343;BME280;17145;49.902;8.680;'2023-05-25 14:46:24';100720;;;24;24
30343;BME280;17145;49.902;8.680;'2023-05-25 14:48:52';100720;;;24;23
30343;BME280;17145;49.902;8.680;'2023-05-25 14:51:19';100720;;;24;23
30343;BME280;17145;49.902;8.680;'2023-05-25 14:53:48';100710;;;24;23
30343;BME280;17145;49.902;8.680;'2023-05-25 14:56:16';100720;;;24;24
30343;BME280;17145;49.902;8.680;'2023-05-25 14:58:44';100710;;;24;25
30343;BME280;17145;49.902;8.680;'2023-05-25 15:01:11';100710;;;24;25
30343;BME280;17145;49.902;8.680;'2023-05-25 15:03:39';100710;;;25;25
30343;BME280;17145;49.902;8.680;'2023-05-25 15:06:06';100710;;;25;25
30343;BME280;17145;49.902;8.680;'2023-05-25 15:08:35';100710;;;25;24
30343;BME280;17145;49.902;8.680;'2023-05-25 15:11:03';100710;;;25;24
30343;BME280;17145;49.902;8.680;'2023-05-25 15:13:30';100710;;;25;22
30343;BME280;17145;49.902;8.680;'2023-05-25 15:15:58';100710;;;23;24
30343;BME280;17145;49.902;8.680;'2023-05-25 15:18:26';100710;;;24;24
30343;BME280;17145;49.902;8.680;'2023-05-25 15:20:53';100700;;;25;24
30343;BME280;17145;49.902;8.680;'2023-05-25 15:23:20';100700;;;25;24
30343;BME280;17145;49.902;8.680;'2023-05-25 15:25:48';100700;;;25;24
30343;BME280;17145;49.902;8.680;'2023-05-25 15:28:15';100700;;;26;24
30343;BME280;17145;49.902;8.680;'2023-05-25 15:30:43';100690;;;25;24
30343;BME280;17145;49.902;8.680;'2023-05-25 15:33:10';100690;;;25;24
30343;BME280;17145;49.902;8.680;'2023-05-25 15:35:37';100690;;;26;24
30343;BME280;17145;49.902;8.680;'2023-05-25 15:38:05';100700;;;25;24
30343;BME280;17145;49.902;8.680;'2023-05-25 15:40:32';100690;;;26;24
30343;BME280;17145;49.902;8.680;'2023-05-25 15:43:00';100690;;;25;24
30343;BME280;17145;49.902;8.680;'2023-05-25 15:45:27';100690;;;26;25
30343;BME280;17145;49.902;8.680;'2023-05-25 15:47:54';100690;;;26;24
30343;BME280;17145;49.902;8.680;'2023-05-25 15:50:22';100690;;;26;24
30343;BME280;17145;49.902;8.680;'2023-05-25 15:52:49';100690;;;26;24
30343;BME280;17145;49.902;8.680;'2023-05-25 15:55:17';100680;;;26;24
30343;BME280;17145;49.902;8.680;'2023-05-25 15:57:44';100680;;;26;23
30343;BME280;17145;49.902;8.680;'2023-05-25 16:00:13';100680;;;26;24
30343;BME280;17145;49.902;8.680;'2023-05-25 16:02:40';100680;;;26;24
30343;BME280;17145;49.902;8.680;'2023-05-25 16:05:08';100680;;;26;23
30343;BME280;17145;49.902;8.680;'2023-05-25 16:07:37';100680;;;26;24
30343;BME280;17145;49.902;8.680;'2023-05-25 16:10:05';100690;;;26;24
30343;BME280;17145;49.902;8.680;'2023-05-25 16:12:32';100680;;;26;24
30343;BME280;17145;49.902;8.680;'2023-05-25 16:15:00';100680;;;25;24
30343;BME280;17145;49.902;8.680;'2023-05-25 16:17:27';100680;;;25;24